Time;durP1;ratioP1;P1;durP2;ratioP2;P2;SDS_P1;SDS_P2;PMS_P1;PMS_P2;Temp;Humidity;BMP_temperature;BMP_pressure;BME280_temperature;BME280_humidity;BME280_pressure;Samples;Min_cycle;Max_cycle;Signal;HPM_P1;HPM_P2
2023/06/19 14:47:31;;;;;;;;;;;;;;;;;;5062516;28;20369;-68
2023/06/19 14:49:58;;;;;;;;;;;;;;;;;;5053913;28;46037;-68
2023/06/19 14:52:24;;;;;;;;;;;;;;;;;;5063418;28;45217;-68
2023/06/19 14:54:50;;;;;;;;;;;;;;;;;;5065881;28;46784;-68
2023/06/19 14:57:17;;;;;;;;;;;;;;;;;;5066650;28;45857;-68
2023/06/19 14:59:43;;;;;;;;;;;;;;;;;;5064008;28;46782;-68
2023/06/19 15:02:11;;;;;;;;;;;;;;;;;;5066213;28;46202;-68
2023/06/19 15:04:38;;;;;;;;;;;;;;;;;;5066404;28;43758;-68
2023/06/19 15:07:06;;;;;;;;;;;;;;;;;;5066059;28;45449;-68
2023/06/19 15:09:32;;;;;;;;;;;;;;;;;;5063168;28;46312;-68
2023/06/19 15:11:59;;;;;;;;;;;;;;;;;;5057840;28;45347;-69
2023/06/19 15:14:25;;;;;;;;;;;;;;;;;;5064012;28;45786;-68
2023/06/19 15:16:51;;;;;;;;;;;;;;;;;;5059977;28;45741;-68
2023/06/19 15:19:17;;;;;;;;;;;;;;;;;;5066512;28;43538;-67
2023/06/19 15:21:44;;;;;;;;;;;;;;;;;;5064529;28;47233;-67
2023/06/19 15:24:10;;;;;;;;;;;;;;;;;;5064645;28;45027;-68
2023/06/19 15:26:36;;;;;;;;;;;;;;;;;;5064137;28;44414;-68
2023/06/19 15:29:05;;;;;;;;;;;;;;;;;;5064717;28;47019;-68
2023/06/19 15:31:31;;;;;;;;;;;;;;;;;;5065109;28;43611;-68
2023/06/19 15:33:58;;;;;;;;;;;;;;;;;;5065360;28;47056;-68
2023/06/19 15:36:24;;;;;;;;;;;;;;;;;;5062654;28;44695;-68
2023/06/19 15:38:50;;;;;;;;;;;;;;;;;;5065422;28;45186;-68
2023/06/19 15:41:17;;;;;;;;;;;;;;;;;;5063803;28;46569;-68
2023/06/19 15:43:43;;;;;;;;;;;;;;;;;;5064017;28;44510;-68
2023/06/19 15:46:09;;;;;;;;;;;;;;;;;;5060626;28;46635;-68
2023/06/19 15:48:36;;;;;;;;;;;;;;;;;;5045442;28;45550;-68
2023/06/19 15:51:02;;;;;;;;;;;;;;;;;;5057856;28;43971;-68
2023/06/19 15:53:28;;;;;;;;;;;;;;;;;;5045347;28;45403;-68
2023/06/19 15:55:55;;;;;;;;;;;;;;;;;;5044588;28;45881;-68
2023/06/19 15:58:21;;;;;;;;;;;;;;;;;;5043439;28;46077;-68
2023/06/19 16:00:51;;;;;;;;;;;;;;;;;;5044703;28;45828;-68
2023/06/19 16:03:17;;;;;;;;;;;;;;;;;;5045209;28;45007;-68
2023/06/19 16:05:45;;;;;;;;;;;;;;;;;;5044463;28;45526;-68
2023/06/19 16:08:27;;;;;;;;;;;;;;;;;;5044904;28;44448;-68
2023/06/19 16:10:53;;;;;;;;;;;;;;;;;;5039156;28;43180;-68
2023/06/19 16:13:19;;;;;;;;;;;;;;;;;;5044708;28;44302;-68
2023/06/19 16:15:45;;;;;;;;;;;;;;;;;;5043282;28;46035;-68
2023/06/19 16:18:13;;;;;;;;;;;;;;;;;;5042873;28;44732;-67
2023/06/19 16:20:39;;;;;;;;;;;;;;;;;;5035628;28;46535;-67
2023/06/19 16:23:06;;;;;;;;;;;;;;;;;;5056423;28;47357;-67
2023/06/19 16:25:32;;;;;;;;;;;;;;;;;;5044546;28;44373;-67
2023/06/19 16:27:59;;;;;;;;;;;;;;;;;;5044967;28;44664;-67
2023/06/19 16:30:28;;;;;;;;;;;;;;;;;;5046884;28;41632;-67
2023/06/19 16:32:54;;;;;;;;;;;;;;;;;;5043483;28;45877;-67
2023/06/19 16:35:24;;;;;;;;;;;;;;;;;;5044706;28;45736;-67
2023/06/19 16:37:50;;;;;;;;;;;;;;;;;;5058878;28;43447;-67
2023/06/19 16:40:16;;;;;;;;;;;;;;;;;;5058796;28;46923;-67
2023/06/19 16:42:43;;;;;;;;;;;;;;;;;;5043667;28;46062;-67
2023/06/19 16:45:09;;;;;;;;;;;;;;;;;;5041066;28;43651;-67
2023/06/19 16:47:35;;;;;;;;;;;;;;;;;;5033675;28;45922;-70
2023/06/19 16:50:01;;;;;;;;;;;;;;;;;;5034561;28;45339;-58
2023/06/19 16:52:28;;;;;;;;;;;;;;;;;;5044773;28;45764;-57
2023/06/19 16:54:54;;;;;;;;;;;;;;;;;;5045828;28;46719;-58
2023/06/19 16:57:20;;;;;;;;;;;;;;;;;;5044473;28;42660;-57
2023/06/19 16:59:47;;;;;;;;;;;;;;;;;;5042255;28;45647;-59
2023/06/19 17:02:14;;;;;;;;;;;;;;;;;;5043825;28;44379;-59
2023/06/19 17:04:40;;;;;;;;;;;;;;;;;;5043480;28;44217;-55
2023/06/19 17:07:06;;;;;;;;;;;;;;;;;;5045209;28;44824;-58
2023/06/19 17:09:33;;;;;;;;;;;;;;;;;;5044882;28;42332;-57
2023/06/19 17:11:59;;;;;;;;;;;;;;;;;;5041718;28;46464;-57
2023/06/19 17:14:25;;;;;;;;;;;;;;;;;;5029574;28;46909;-56
2023/06/19 17:16:51;;;;;;;;;;;;;;;;;;5045926;28;43860;-58
2023/06/19 17:19:18;;;;;;;;;;;;;;;;;;5044486;28;45727;-57
2023/06/19 17:21:44;;;;;;;;;;;;;;;;;;5034070;28;47157;-66
2023/06/19 17:24:11;;;;;;;;;;;;;;;;;;5041349;28;43710;-68
2023/06/19 17:26:38;;;;;;;;;;;;;;;;;;5026433;28;46381;-68
2023/06/19 17:29:06;;;;;;;;;;;;;;;;;;5044770;28;46004;-68
2023/06/19 17:31:32;;;;;;;;;;;;;;;;;;5046227;28;44456;-69
2023/06/19 17:33:59;;;;;;;;;;;;;;;;;;5046105;28;47090;-69
2023/06/19 17:36:25;;;;;;;;;;;;;;;;;;5046560;28;45875;-69
2023/06/19 17:38:51;;;;;;;;;;;;;;;;;;5045947;28;44314;-69
2023/06/19 17:41:17;;;;;;;;;;;;;;;;;;5042210;28;46046;-69
2023/06/19 17:43:44;;;;;;;;;;;;;;;;;;5046884;28;42326;-68
2023/06/19 17:46:10;;;;;;;;;;;;;;;;;;5036036;28;45284;-69
2023/06/19 17:48:36;;;;;;;;;;;;;;;;;;5030064;28;46508;-69
2023/06/19 17:51:04;;;;;;;;;;;;;;;;;;5045646;28;43835;-68
2023/06/19 17:53:31;;;;;;;;;;;;;;;;;;5053569;28;44558;-69
2023/06/19 17:56:00;;;;;;;;;;;;;;;;;;5043086;28;43816;-69
2023/06/19 17:58:28;;;;;;;;;;;;;;;;;;5043726;28;46879;-69
2023/06/19 18:00:55;;;;;;;;;;;;;;;;;;5045636;28;46809;-68
2023/06/19 18:03:21;;;;;;;;;;;;;;;;;;5045986;28;44701;-68
2023/06/19 18:05:47;;;;;;;;;;;;;;;;;;5045924;28;46740;-69
2023/06/19 18:08:14;;;;;;;;;;;;;;;;;;5046149;28;46952;-69
2023/06/19 18:10:40;;;;;;;;;;;;;;;;;;5038238;28;44151;-69
2023/06/19 18:13:06;;;;;;;;;;;;;;;;;;5041989;28;45134;-68
2023/06/19 18:15:32;;;;;;;;;;;;;;;;;;5044916;28;43068;-69
2023/06/19 18:17:59;;;;;;;;;;;;;;;;;;5045367;28;44531;-68
2023/06/19 18:20:25;;;;;;;;;;;;;;;;;;5045513;28;47170;-68
2023/06/19 18:22:52;;;;;;;;;;;;;;;;;;5043148;28;44795;-69
2023/06/19 18:25:18;;;;;;;;;;;;;;;;;;5044635;28;46554;-68
2023/06/19 18:27:44;;;;;;;;;;;;;;;;;;5044713;28;46364;-68
2023/06/19 18:30:11;;;;;;;;;;;;;;;;;;5044855;28;43544;-68
2023/06/19 18:32:38;;;;;;;;;;;;;;;;;;5045543;28;19929;-68
2023/06/19 18:35:05;;;;;;;;;;;;;;;;;;5045148;28;43397;-69
2023/06/19 18:37:31;;;;;;;;;;;;;;;;;;5045344;28;46925;-69
2023/06/19 18:39:57;;;;;;;;;;;;;;;;;;5044225;28;46153;-68
2023/06/19 18:42:23;;;;;;;;;;;;;;;;;;5041709;28;43719;-68
2023/06/19 18:44:50;;;;;;;;;;;;;;;;;;5044181;28;46787;-68
2023/06/19 18:47:16;;;;;;;;;;;;;;;;;;5060902;28;46719;-69
2023/06/19 18:49:42;;;;;;;;;;;;;;;;;;5064666;28;45634;-68
2023/06/19 18:52:09;;;;;;;;;;;;;;;;;;5062575;28;46753;-67
2023/06/19 18:54:35;;;;;;;;;;;;;;;;;;5062487;28;44883;-70
2023/06/19 18:57:01;;;;;;;;;;;;;;;;;;5064575;28;47247;-69
2023/06/19 18:59:27;;;;;;;;;;;;;;;;;;5052913;28;46149;-69
2023/06/19 19:01:54;;;;;;;;;;;;;;;;;;5052505;28;43644;-57
2023/06/19 19:04:20;;;;;;;;;;;;;;;;;;5063301;28;45089;-56
2023/06/19 19:06:46;;;;;;;;;;;;;;;;;;5058560;28;47105;-53
2023/06/19 19:09:13;;;;;;;;;;;;;;;;;;5066325;28;43020;-58
2023/06/19 19:11:39;;;;;;;;;;;;;;;;;;5045305;28;45518;-57
2023/06/19 19:14:05;;;;;;;;;;;;;;;;;;5050655;28;47185;-54
2023/06/19 19:16:32;;;;;;;;;;;;;;;;;;5060021;28;42305;-56
2023/06/19 19:18:58;;;;;;;;;;;;;;;;;;5062688;28;46930;-57
2023/06/19 19:21:24;;;;;;;;;;;;;;;;;;5064138;28;45032;-56
2023/06/19 19:23:50;;;;;;;;;;;;;;;;;;5063888;28;44588;-55
2023/06/19 19:26:17;;;;;;;;;;;;;;;;;;5064570;28;46945;-57
2023/06/19 19:28:43;;;;;;;;;;;;;;;;;;5061948;28;45472;-57
2023/06/19 19:31:09;;;;;;;;;;;;;;;;;;5064105;28;44815;-58
2023/06/19 19:33:36;;;;;;;;;;;;;;;;;;5064710;28;46922;-58
2023/06/19 19:36:04;;;;;;;;;;;;;;;;;;5064494;28;45209;-57
2023/06/19 19:38:30;;;;;;;;;;;;;;;;;;5058801;28;46405;-58
2023/06/19 19:40:56;;;;;;;;;;;;;;;;;;5060012;28;44217;-58
2023/06/19 19:43:23;;;;;;;;;;;;;;;;;;5063321;28;46577;-59
2023/06/19 19:45:49;;;;;;;;;;;;;;;;;;5064402;28;45669;-55
2023/06/19 19:48:15;;;;;;;;;;;;;;;;;;5079587;28;44246;-56
2023/06/19 19:50:41;;;;;;;;;;;;;;;;;;5068568;28;46386;-54
2023/06/19 19:53:08;;;;;;;;;;;;;;;;;;5061771;28;45721;-58
2023/06/19 19:55:34;;;;;;;;;;;;;;;;;;5065351;28;42517;-57
2023/06/19 19:58:01;;;;;;;;;;;;;;;;;;5063021;28;45287;-57
2023/06/19 20:00:28;;;;;;;;;;;;;;;;;;5070668;28;44800;-56
2023/06/19 20:02:54;;;;;;;;;;;;;;;;;;5063513;28;46581;-58
2023/06/19 20:05:20;;;;;;;;;;;;;;;;;;5065292;28;45493;-57
2023/06/19 20:07:47;;;;;;;;;;;;;;;;;;5058853;28;43223;-55
2023/06/19 20:10:13;;;;;;;;;;;;;;;;;;5064555;28;46454;-58
2023/06/19 20:12:39;;;;;;;;;;;;;;;;;;5066687;28;45155;-57
2023/06/19 20:15:07;;;;;;;;;;;;;;;;;;5045908;28;44967;-58
2023/06/19 20:17:33;;;;;;;;;;;;;;;;;;5078801;28;46514;-56
2023/06/19 20:20:02;;;;;;;;;;;;;;;;;;5059935;28;46986;-57
2023/06/19 20:22:28;;;;;;;;;;;;;;;;;;5059029;28;45641;-52
2023/06/19 20:24:55;;;;;;;;;;;;;;;;;;5063441;28;45823;-56
2023/06/19 20:27:21;;;;;;;;;;;;;;;;;;5059816;28;44538;-56
2023/06/19 20:29:47;;;;;;;;;;;;;;;;;;5070003;28;45197;-57
2023/06/19 20:32:14;;;;;;;;;;;;;;;;;;5077615;28;46141;-58
2023/06/19 20:34:40;;;;;;;;;;;;;;;;;;5067260;28;43731;-56
2023/06/19 20:37:06;;;;;;;;;;;;;;;;;;5067210;28;46541;-58
2023/06/19 20:39:32;;;;;;;;;;;;;;;;;;5058145;28;45948;-59
2023/06/19 20:42:01;;;;;;;;;;;;;;;;;;5060211;28;45123;-55
2023/06/19 20:44:28;;;;;;;;;;;;;;;;;;5066369;28;46052;-58
2023/06/19 20:46:54;;;;;;;;;;;;;;;;;;5049349;28;42391;-54
2023/06/19 20:49:21;;;;;;;;;;;;;;;;;;5047236;28;46950;-58
2023/06/19 20:51:48;;;;;;;;;;;;;;;;;;5045864;28;44844;-57
2023/06/19 20:54:15;;;;;;;;;;;;;;;;;;5062487;28;42410;-57
2023/06/19 20:56:42;;;;;;;;;;;;;;;;;;5048279;28;46811;-58
2023/06/19 20:59:08;;;;;;;;;;;;;;;;;;5048094;28;46252;-57
2023/06/19 21:01:34;;;;;;;;;;;;;;;;;;5048457;28;43858;-59
2023/06/19 21:04:01;;;;;;;;;;;;;;;;;;5042552;28;46826;-57
2023/06/19 21:06:29;;;;;;;;;;;;;;;;;;5047067;28;43748;-56
2023/06/19 21:08:55;;;;;;;;;;;;;;;;;;5048392;28;45512;-59
2023/06/19 21:11:22;;;;;;;;;;;;;;;;;;5048043;28;44774;-59
2023/06/19 21:13:48;;;;;;;;;;;;;;;;;;5047294;28;42019;-57
2023/06/19 21:16:14;;;;;;;;;;;;;;;;;;5046857;28;46802;-55
2023/06/19 21:18:40;;;;;;;;;;;;;;;;;;5047470;28;47396;-59
2023/06/19 21:21:07;;;;;;;;;;;;;;;;;;5045642;28;43780;-57
2023/06/19 21:23:33;;;;;;;;;;;;;;;;;;5047825;28;45372;-58
2023/06/19 21:25:59;;;;;;;;;;;;;;;;;;5046136;28;45947;-58
2023/06/19 21:28:26;;;;;;;;;;;;;;;;;;5063017;28;45349;-57
2023/06/19 21:30:52;;;;;;;;;;;;;;;;;;5048312;28;47394;-56
2023/06/19 21:33:19;;;;;;;;;;;;;;;;;;5047469;28;44682;-59
2023/06/19 21:35:48;;;;;;;;;;;;;;;;;;5047954;28;45261;-56
2023/06/19 21:38:14;;;;;;;;;;;;;;;;;;5046622;28;46850;-59
2023/06/19 21:40:40;;;;;;;;;;;;;;;;;;5048054;28;44961;-57
2023/06/19 21:43:06;;;;;;;;;;;;;;;;;;5046004;28;45732;-55
2023/06/19 21:45:33;;;;;;;;;;;;;;;;;;5050348;28;47378;-57
2023/06/19 21:47:59;;;;;;;;;;;;;;;;;;5067102;28;44177;-57
2023/06/19 21:50:25;;;;;;;;;;;;;;;;;;5067136;28;46996;-59
2023/06/19 21:52:52;;;;;;;;;;;;;;;;;;5066671;28;44054;-56
2023/06/19 21:55:19;;;;;;;;;;;;;;;;;;5066642;28;45388;-59
2023/06/19 21:57:48;;;;;;;;;;;;;;;;;;5067486;28;44991;-57
2023/06/19 22:00:26;;;;;;;;;;;;;;;;;;5047428;28;45208;-56
2023/06/19 22:02:53;;;;;;;;;;;;;;;;;;5047163;28;45264;-57
2023/06/19 22:05:19;;;;;;;;;;;;;;;;;;5047171;28;46136;-57
2023/06/19 22:07:45;;;;;;;;;;;;;;;;;;5064637;28;44843;-54
2023/06/19 22:10:11;;;;;;;;;;;;;;;;;;5067129;28;47163;-56
2023/06/19 22:12:38;;;;;;;;;;;;;;;;;;5067016;28;43831;-58
2023/06/19 22:15:04;;;;;;;;;;;;;;;;;;5066202;28;46698;-53
2023/06/19 22:17:30;;;;;;;;;;;;;;;;;;5067179;28;46866;-56
2023/06/19 22:19:56;;;;;;;;;;;;;;;;;;5062308;28;42632;-58
2023/06/19 22:22:23;;;;;;;;;;;;;;;;;;5065038;28;48191;-57
2023/06/19 22:24:50;;;;;;;;;;;;;;;;;;5062992;28;45151;-58
2023/06/19 22:27:17;;;;;;;;;;;;;;;;;;5065695;28;45212;-59
2023/06/19 22:29:43;;;;;;;;;;;;;;;;;;5067067;28;43602;-59
2023/06/19 22:32:09;;;;;;;;;;;;;;;;;;5066396;28;42016;-58
2023/06/19 22:34:36;;;;;;;;;;;;;;;;;;5063120;28;43726;-59
2023/06/19 22:37:02;;;;;;;;;;;;;;;;;;5052265;28;46799;-59
2023/06/19 22:39:28;;;;;;;;;;;;;;;;;;5053688;28;44090;-58
2023/06/19 22:41:54;;;;;;;;;;;;;;;;;;5064975;28;45389;-58
2023/06/19 22:44:21;;;;;;;;;;;;;;;;;;5061352;28;44776;-58
2023/06/19 22:46:47;;;;;;;;;;;;;;;;;;5050273;28;44178;-58
2023/06/19 22:49:13;;;;;;;;;;;;;;;;;;5045308;28;46741;-56
2023/06/19 22:51:40;;;;;;;;;;;;;;;;;;5045826;28;47090;-58
2023/06/19 22:54:06;;;;;;;;;;;;;;;;;;5061252;28;46596;-59
2023/06/19 22:56:32;;;;;;;;;;;;;;;;;;5044461;28;46120;-55
2023/06/19 22:58:59;;;;;;;;;;;;;;;;;;5045244;28;44146;-52
2023/06/19 23:01:25;;;;;;;;;;;;;;;;;;5045115;28;45564;-59
2023/06/19 23:03:51;;;;;;;;;;;;;;;;;;5045555;28;45763;-58
2023/06/19 23:06:18;;;;;;;;;;;;;;;;;;5045322;28;42683;-56
2023/06/19 23:08:44;;;;;;;;;;;;;;;;;;5046151;28;46431;-58
2023/06/19 23:11:10;;;;;;;;;;;;;;;;;;5044519;28;46061;-56
2023/06/19 23:13:36;;;;;;;;;;;;;;;;;;5045956;28;45173;-55
2023/06/19 23:16:03;;;;;;;;;;;;;;;;;;5043757;28;44578;-55
2023/06/19 23:18:29;;;;;;;;;;;;;;;;;;5045466;28;46229;-56
2023/06/19 23:20:55;;;;;;;;;;;;;;;;;;5044268;28;46420;-56
2023/06/19 23:23:21;;;;;;;;;;;;;;;;;;5045158;28;47170;-58
2023/06/19 23:25:48;;;;;;;;;;;;;;;;;;5042103;28;42929;-59
2023/06/19 23:28:14;;;;;;;;;;;;;;;;;;5043178;28;45420;-57
2023/06/19 23:30:40;;;;;;;;;;;;;;;;;;5044971;28;46201;-58
2023/06/19 23:33:07;;;;;;;;;;;;;;;;;;5045072;28;44107;-58
2023/06/19 23:35:33;;;;;;;;;;;;;;;;;;5044674;28;46552;-54
2023/06/19 23:37:59;;;;;;;;;;;;;;;;;;5043452;28;44936;-56
2023/06/19 23:40:26;;;;;;;;;;;;;;;;;;5045420;28;46754;-53
2023/06/19 23:42:53;;;;;;;;;;;;;;;;;;5044694;28;46043;-55
2023/06/19 23:45:19;;;;;;;;;;;;;;;;;;5044382;28;42816;-59
2023/06/19 23:47:45;;;;;;;;;;;;;;;;;;5044570;28;46501;-56
2023/06/19 23:50:12;;;;;;;;;;;;;;;;;;5045092;28;46677;-56
2023/06/19 23:52:38;;;;;;;;;;;;;;;;;;5043809;28;44746;-58
2023/06/19 23:55:09;;;;;;;;;;;;;;;;;;5044376;28;45891;-56
2023/06/19 23:57:35;;;;;;;;;;;;;;;;;;5042987;28;33570;-57
